sensor_id;sensor_type;location;lat;lon;timestamp;pressure;altitude;pressure_sealevel;temperature;humidity
84522;BME280;74758;50.066;20.008;2024-03-02T00:00:33;98672.72;;;8.84;70.03
84522;BME280;74758;50.066;20.008;2024-03-02T00:01:35;98670.40;;;8.82;70.21
84522;BME280;74758;50.066;20.008;2024-03-02T00:02:44;98672.59;;;8.81;70.00
84522;BME280;74758;50.066;20.008;2024-03-02T00:03:46;98672.09;;;8.79;70.02
84522;BME280;74758;50.066;20.008;2024-03-02T00:04:48;98676.30;;;8.77;69.97
84522;BME280;74758;50.066;20.008;2024-03-02T00:05:50;98679.08;;;8.76;70.13
84522;BME280;74758;50.066;20.008;2024-03-02T00:06:55;98681.90;;;8.74;70.08
84522;BME280;74758;50.066;20.008;2024-03-02T00:07:57;98685.20;;;8.72;70.20
84522;BME280;74758;50.066;20.008;2024-03-02T00:08:59;98682.77;;;8.70;70.10
84522;BME280;74758;50.066;20.008;2024-03-02T00:10:08;98679.54;;;8.67;70.29
84522;BME280;74758;50.066;20.008;2024-03-02T00:11:12;98681.39;;;8.64;70.30
84522;BME280;74758;50.066;20.008;2024-03-02T00:12:16;98681.77;;;8.62;70.36
84522;BME280;74758;50.066;20.008;2024-03-02T00:13:20;98678.52;;;8.59;70.40
84522;BME280;74758;50.066;20.008;2024-03-02T00:14:29;98677.77;;;8.57;70.44
84522;BME280;74758;50.066;20.008;2024-03-02T00:16:45;98679.16;;;8.52;70.56
84522;BME280;74758;50.066;20.008;2024-03-02T00:17:54;98677.62;;;8.50;70.51
84522;BME280;74758;50.066;20.008;2024-03-02T00:19:02;98684.23;;;8.46;70.61
84522;BME280;74758;50.066;20.008;2024-03-02T00:20:06;98684.00;;;8.43;70.53
84522;BME280;74758;50.066;20.008;2024-03-02T00:21:11;98683.91;;;8.40;70.60
84522;BME280;74758;50.066;20.008;2024-03-02T00:22:15;98686.60;;;8.37;70.72
84522;BME280;74758;50.066;20.008;2024-03-02T00:23:18;98684.30;;;8.35;70.70
84522;BME280;74758;50.066;20.008;2024-03-02T00:24:29;98685.27;;;8.35;70.78
84522;BME280;74758;50.066;20.008;2024-03-02T00:25:53;98685.46;;;8.34;70.82
84522;BME280;74758;50.066;20.008;2024-03-02T00:26:55;98688.52;;;8.33;70.94
84522;BME280;74758;50.066;20.008;2024-03-02T00:27:56;98687.95;;;8.32;70.86
84522;BME280;74758;50.066;20.008;2024-03-02T00:28:59;98687.42;;;8.30;70.82
84522;BME280;74758;50.066;20.008;2024-03-02T00:30:12;98689.72;;;8.27;70.78
84522;BME280;74758;50.066;20.008;2024-03-02T00:31:27;98691.10;;;8.22;70.36
84522;BME280;74758;50.066;20.008;2024-03-02T00:32:29;98689.85;;;8.17;70.18
84522;BME280;74758;50.066;20.008;2024-03-02T00:33:36;98686.54;;;8.12;70.37
84522;BME280;74758;50.066;20.008;2024-03-02T00:34:39;98682.21;;;8.08;70.53
84522;BME280;74758;50.066;20.008;2024-03-02T00:35:44;98681.70;;;8.06;70.69
84522;BME280;74758;50.066;20.008;2024-03-02T00:36:46;98678.84;;;8.05;71.00
84522;BME280;74758;50.066;20.008;2024-03-02T00:37:48;98682.87;;;8.03;71.10
84522;BME280;74758;50.066;20.008;2024-03-02T00:38:51;98679.89;;;8.03;71.32
84522;BME280;74758;50.066;20.008;2024-03-02T00:39:56;98678.26;;;8.03;71.27
84522;BME280;74758;50.066;20.008;2024-03-02T00:41:00;98681.64;;;8.05;71.41
84522;BME280;74758;50.066;20.008;2024-03-02T00:42:02;98687.02;;;8.07;71.53
84522;BME280;74758;50.066;20.008;2024-03-02T00:43:04;98684.02;;;8.09;71.47
84522;BME280;74758;50.066;20.008;2024-03-02T00:44:07;98688.60;;;8.11;71.35
84522;BME280;74758;50.066;20.008;2024-03-02T00:45:09;98691.67;;;8.12;71.43
84522;BME280;74758;50.066;20.008;2024-03-02T00:46:12;98689.52;;;8.10;71.32
84522;BME280;74758;50.066;20.008;2024-03-02T00:47:14;98687.49;;;8.10;71.38
84522;BME280;74758;50.066;20.008;2024-03-02T00:48:16;98687.20;;;8.09;71.26
84522;BME280;74758;50.066;20.008;2024-03-02T00:49:21;98680.64;;;8.08;71.45
84522;BME280;74758;50.066;20.008;2024-03-02T00:50:23;98679.89;;;8.08;71.46
84522;BME280;74758;50.066;20.008;2024-03-02T00:51:33;98673.31;;;8.07;71.34
84522;BME280;74758;50.066;20.008;2024-03-02T00:52:36;98669.86;;;8.07;71.44
84522;BME280;74758;50.066;20.008;2024-03-02T00:53:37;98670.46;;;8.08;71.95
84522;BME280;74758;50.066;20.008;2024-03-02T00:54:39;98669.64;;;8.08;71.88
84522;BME280;74758;50.066;20.008;2024-03-02T00:55:41;98668.86;;;8.08;71.90
84522;BME280;74758;50.066;20.008;2024-03-02T00:56:46;98669.92;;;8.10;71.81
84522;BME280;74758;50.066;20.008;2024-03-02T00:57:48;98671.17;;;8.12;71.76
84522;BME280;74758;50.066;20.008;2024-03-02T00:58:50;98676.25;;;8.14;71.82
84522;BME280;74758;50.066;20.008;2024-03-02T00:59:52;98674.39;;;8.15;71.69
84522;BME280;74758;50.066;20.008;2024-03-02T01:00:54;98675.20;;;8.16;71.66
84522;BME280;74758;50.066;20.008;2024-03-02T01:01:57;98675.70;;;8.16;71.69
84522;BME280;74758;50.066;20.008;2024-03-02T01:02:58;98676.71;;;8.15;71.70
84522;BME280;74758;50.066;20.008;2024-03-02T01:04:01;98674.36;;;8.13;71.67
84522;BME280;74758;50.066;20.008;2024-03-02T01:05:03;98670.70;;;8.11;71.65
84522;BME280;74758;50.066;20.008;2024-03-02T01:06:06;98668.70;;;8.10;71.64
84522;BME280;74758;50.066;20.008;2024-03-02T01:07:08;98670.86;;;8.10;71.67
84522;BME280;74758;50.066;20.008;2024-03-02T01:08:11;98669.23;;;8.10;71.74
84522;BME280;74758;50.066;20.008;2024-03-02T01:09:13;98662.98;;;8.10;71.83
84522;BME280;74758;50.066;20.008;2024-03-02T01:10:15;98663.48;;;8.10;71.77
84522;BME280;74758;50.066;20.008;2024-03-02T01:11:17;98663.14;;;8.10;71.88
84522;BME280;74758;50.066;20.008;2024-03-02T01:12:20;98664.58;;;8.09;71.87
84522;BME280;74758;50.066;20.008;2024-03-02T01:13:22;98659.46;;;8.10;71.83
84522;BME280;74758;50.066;20.008;2024-03-02T01:14:25;98660.44;;;8.11;71.81
84522;BME280;74758;50.066;20.008;2024-03-02T01:15:27;98655.16;;;8.13;71.95
84522;BME280;74758;50.066;20.008;2024-03-02T01:16:29;98660.60;;;8.15;71.90
84522;BME280;74758;50.066;20.008;2024-03-02T01:17:31;98656.52;;;8.17;71.94
84522;BME280;74758;50.066;20.008;2024-03-02T01:18:33;98655.96;;;8.19;71.86
84522;BME280;74758;50.066;20.008;2024-03-02T01:19:35;98652.05;;;8.22;71.83
84522;BME280;74758;50.066;20.008;2024-03-02T01:20:37;98653.00;;;8.25;71.83
84522;BME280;74758;50.066;20.008;2024-03-02T01:21:38;98655.02;;;8.26;71.81
84522;BME280;74758;50.066;20.008;2024-03-02T01:22:40;98652.86;;;8.26;71.81
84522;BME280;74758;50.066;20.008;2024-03-02T01:23:42;98654.85;;;8.28;71.76
84522;BME280;74758;50.066;20.008;2024-03-02T01:24:44;98656.19;;;8.28;71.73
84522;BME280;74758;50.066;20.008;2024-03-02T01:25:46;98656.69;;;8.29;71.77
84522;BME280;74758;50.066;20.008;2024-03-02T01:26:48;98656.98;;;8.30;71.71
84522;BME280;74758;50.066;20.008;2024-03-02T01:27:50;98654.70;;;8.30;71.58
84522;BME280;74758;50.066;20.008;2024-03-02T01:28:52;98647.89;;;8.29;71.72
84522;BME280;74758;50.066;20.008;2024-03-02T01:29:53;98644.02;;;8.30;71.64
84522;BME280;74758;50.066;20.008;2024-03-02T01:30:56;98642.23;;;8.28;71.54
84522;BME280;74758;50.066;20.008;2024-03-02T01:31:57;98645.10;;;8.27;71.53
84522;BME280;74758;50.066;20.008;2024-03-02T01:32:59;98643.96;;;8.28;71.54
84522;BME280;74758;50.066;20.008;2024-03-02T01:34:01;98640.56;;;8.29;71.74
84522;BME280;74758;50.066;20.008;2024-03-02T01:35:04;98638.66;;;8.31;71.65
84522;BME280;74758;50.066;20.008;2024-03-02T01:36:06;98636.30;;;8.32;71.63
84522;BME280;74758;50.066;20.008;2024-03-02T01:37:10;98638.41;;;8.34;71.60
84522;BME280;74758;50.066;20.008;2024-03-02T01:38:11;98636.50;;;8.36;71.54
84522;BME280;74758;50.066;20.008;2024-03-02T01:39:13;98638.96;;;8.35;71.45
84522;BME280;74758;50.066;20.008;2024-03-02T01:40:15;98635.86;;;8.35;71.47
84522;BME280;74758;50.066;20.008;2024-03-02T01:41:16;98634.31;;;8.35;71.38
84522;BME280;74758;50.066;20.008;2024-03-02T01:42:18;98632.38;;;8.35;71.43
84522;BME280;74758;50.066;20.008;2024-03-02T01:43:20;98627.68;;;8.35;71.45
84522;BME280;74758;50.066;20.008;2024-03-02T01:44:21;98627.21;;;8.34;71.40
84522;BME280;74758;50.066;20.008;2024-03-02T01:45:24;98625.11;;;8.34;71.42
84522;BME280;74758;50.066;20.008;2024-03-02T01:46:26;98619.38;;;8.33;71.39
84522;BME280;74758;50.066;20.008;2024-03-02T01:47:28;98622.03;;;8.33;71.59
84522;BME280;74758;50.066;20.008;2024-03-02T01:48:30;98620.55;;;8.30;71.68
84522;BME280;74758;50.066;20.008;2024-03-02T01:49:31;98617.81;;;8.29;71.53
84522;BME280;74758;50.066;20.008;2024-03-02T01:50:35;98619.60;;;8.28;71.58
84522;BME280;74758;50.066;20.008;2024-03-02T01:51:37;98620.69;;;8.28;71.44
84522;BME280;74758;50.066;20.008;2024-03-02T01:52:39;98620.38;;;8.27;71.38
84522;BME280;74758;50.066;20.008;2024-03-02T01:53:41;98622.29;;;8.28;71.46
84522;BME280;74758;50.066;20.008;2024-03-02T01:54:43;98622.45;;;8.28;71.42
84522;BME280;74758;50.066;20.008;2024-03-02T01:55:45;98624.34;;;8.26;71.48
84522;BME280;74758;50.066;20.008;2024-03-02T01:56:47;98625.01;;;8.25;71.48
84522;BME280;74758;50.066;20.008;2024-03-02T01:57:49;98629.45;;;8.24;71.45
84522;BME280;74758;50.066;20.008;2024-03-02T01:58:54;98629.23;;;8.22;71.58
84522;BME280;74758;50.066;20.008;2024-03-02T01:59:56;98626.39;;;8.21;71.58
84522;BME280;74758;50.066;20.008;2024-03-02T02:00:57;98622.33;;;8.20;71.59
84522;BME280;74758;50.066;20.008;2024-03-02T02:01:59;98614.95;;;8.18;71.61
84522;BME280;74758;50.066;20.008;2024-03-02T02:03:01;98617.48;;;8.17;71.65
84522;BME280;74758;50.066;20.008;2024-03-02T02:04:03;98614.11;;;8.16;71.77
84522;BME280;74758;50.066;20.008;2024-03-02T02:05:05;98615.94;;;8.15;71.80
84522;BME280;74758;50.066;20.008;2024-03-02T02:06:08;98619.88;;;8.14;71.75
84522;BME280;74758;50.066;20.008;2024-03-02T02:07:09;98620.34;;;8.13;71.84
84522;BME280;74758;50.066;20.008;2024-03-02T02:08:11;98621.41;;;8.13;71.74
84522;BME280;74758;50.066;20.008;2024-03-02T02:09:13;98620.73;;;8.12;71.71
84522;BME280;74758;50.066;20.008;2024-03-02T02:10:15;98621.44;;;8.12;71.75
84522;BME280;74758;50.066;20.008;2024-03-02T02:11:17;98620.75;;;8.12;71.73
84522;BME280;74758;50.066;20.008;2024-03-02T02:12:19;98621.94;;;8.12;71.67
84522;BME280;74758;50.066;20.008;2024-03-02T02:13:21;98626.86;;;8.12;71.64
84522;BME280;74758;50.066;20.008;2024-03-02T02:14:22;98631.66;;;8.13;71.68
84522;BME280;74758;50.066;20.008;2024-03-02T02:15:24;98633.08;;;8.13;71.58
84522;BME280;74758;50.066;20.008;2024-03-02T02:16:27;98633.36;;;8.14;71.68
84522;BME280;74758;50.066;20.008;2024-03-02T02:17:29;98632.64;;;8.14;71.68
84522;BME280;74758;50.066;20.008;2024-03-02T02:18:30;98632.64;;;8.14;71.75
84522;BME280;74758;50.066;20.008;2024-03-02T02:19:32;98633.82;;;8.14;71.67
84522;BME280;74758;50.066;20.008;2024-03-02T02:20:33;98633.00;;;8.14;71.68
84522;BME280;74758;50.066;20.008;2024-03-02T02:21:35;98634.90;;;8.14;71.65
84522;BME280;74758;50.066;20.008;2024-03-02T02:22:37;98630.09;;;8.13;71.73
84522;BME280;74758;50.066;20.008;2024-03-02T02:23:39;98627.69;;;8.13;71.71
84522;BME280;74758;50.066;20.008;2024-03-02T02:24:41;98631.34;;;8.13;71.55
84522;BME280;74758;50.066;20.008;2024-03-02T02:25:43;98627.63;;;8.11;71.63
84522;BME280;74758;50.066;20.008;2024-03-02T02:26:44;98627.02;;;8.10;71.52
84522;BME280;74758;50.066;20.008;2024-03-02T02:27:46;98632.10;;;8.10;71.61
84522;BME280;74758;50.066;20.008;2024-03-02T02:28:48;98629.92;;;8.09;71.68
84522;BME280;74758;50.066;20.008;2024-03-02T02:29:50;98628.39;;;8.09;71.65
84522;BME280;74758;50.066;20.008;2024-03-02T02:30:52;98630.84;;;8.09;71.63
84522;BME280;74758;50.066;20.008;2024-03-02T02:31:54;98630.20;;;8.08;71.55
84522;BME280;74758;50.066;20.008;2024-03-02T02:32:56;98633.28;;;8.07;71.60
84522;BME280;74758;50.066;20.008;2024-03-02T02:33:58;98633.91;;;8.06;71.62
84522;BME280;74758;50.066;20.008;2024-03-02T02:35:00;98633.96;;;8.06;71.70
84522;BME280;74758;50.066;20.008;2024-03-02T02:36:01;98629.13;;;8.05;71.80
84522;BME280;74758;50.066;20.008;2024-03-02T02:37:03;98628.77;;;8.05;71.74
84522;BME280;74758;50.066;20.008;2024-03-02T02:38:05;98626.39;;;8.04;71.71
84522;BME280;74758;50.066;20.008;2024-03-02T02:39:11;98625.78;;;8.05;71.63
84522;BME280;74758;50.066;20.008;2024-03-02T02:40:15;98625.30;;;8.04;71.67
84522;BME280;74758;50.066;20.008;2024-03-02T02:41:17;98625.25;;;8.03;71.62
84522;BME280;74758;50.066;20.008;2024-03-02T02:42:19;98626.05;;;8.02;71.73
84522;BME280;74758;50.066;20.008;2024-03-02T02:43:21;98627.52;;;8.01;71.72
84522;BME280;74758;50.066;20.008;2024-03-02T02:44:22;98627.11;;;8.02;71.63
84522;BME280;74758;50.066;20.008;2024-03-02T02:45:25;98625.25;;;8.03;71.72
84522;BME280;74758;50.066;20.008;2024-03-02T02:46:26;98624.26;;;8.05;71.64
84522;BME280;74758;50.066;20.008;2024-03-02T02:47:28;98624.17;;;8.05;71.62
84522;BME280;74758;50.066;20.008;2024-03-02T02:48:31;98621.55;;;8.05;71.54
84522;BME280;74758;50.066;20.008;2024-03-02T02:49:32;98621.91;;;8.05;71.61
84522;BME280;74758;50.066;20.008;2024-03-02T02:50:34;98619.86;;;8.05;71.52
84522;BME280;74758;50.066;20.008;2024-03-02T02:51:36;98616.11;;;8.04;71.41
84522;BME280;74758;50.066;20.008;2024-03-02T02:52:39;98615.84;;;8.03;71.50
84522;BME280;74758;50.066;20.008;2024-03-02T02:53:42;98613.56;;;8.03;71.71
84522;BME280;74758;50.066;20.008;2024-03-02T02:54:43;98615.50;;;8.02;71.54
84522;BME280;74758;50.066;20.008;2024-03-02T02:55:45;98612.35;;;8.03;71.67
84522;BME280;74758;50.066;20.008;2024-03-02T02:56:47;98611.96;;;8.03;71.66
84522;BME280;74758;50.066;20.008;2024-03-02T02:57:49;98615.23;;;8.04;71.67
84522;BME280;74758;50.066;20.008;2024-03-02T02:58:50;98615.33;;;8.04;71.63
84522;BME280;74758;50.066;20.008;2024-03-02T02:59:53;98615.70;;;8.04;71.57
84522;BME280;74758;50.066;20.008;2024-03-02T03:00:54;98621.22;;;8.05;71.61
84522;BME280;74758;50.066;20.008;2024-03-02T03:01:58;98624.04;;;8.03;71.55
84522;BME280;74758;50.066;20.008;2024-03-02T03:03:00;98623.34;;;8.03;71.48
84522;BME280;74758;50.066;20.008;2024-03-02T03:04:02;98621.05;;;8.01;71.39
84522;BME280;74758;50.066;20.008;2024-03-02T03:05:05;98618.58;;;8.00;71.44
84522;BME280;74758;50.066;20.008;2024-03-02T03:06:07;98616.48;;;8.00;71.38
84522;BME280;74758;50.066;20.008;2024-03-02T03:07:09;98617.21;;;7.99;71.43
84522;BME280;74758;50.066;20.008;2024-03-02T03:08:11;98615.27;;;7.97;71.59
84522;BME280;74758;50.066;20.008;2024-03-02T03:09:12;98614.70;;;7.96;71.48
84522;BME280;74758;50.066;20.008;2024-03-02T03:10:15;98613.92;;;7.94;71.63
84522;BME280;74758;50.066;20.008;2024-03-02T03:11:16;98611.11;;;7.95;71.73
84522;BME280;74758;50.066;20.008;2024-03-02T03:12:18;98610.39;;;7.95;71.65
84522;BME280;74758;50.066;20.008;2024-03-02T03:13:20;98612.30;;;7.95;71.71
84522;BME280;74758;50.066;20.008;2024-03-02T03:14:22;98615.08;;;7.95;71.77
84522;BME280;74758;50.066;20.008;2024-03-02T03:15:23;98614.66;;;7.96;71.66
84522;BME280;74758;50.066;20.008;2024-03-02T03:16:25;98615.85;;;7.97;71.72
84522;BME280;74758;50.066;20.008;2024-03-02T03:17:27;98618.56;;;7.96;71.58
84522;BME280;74758;50.066;20.008;2024-03-02T03:18:29;98620.26;;;7.94;71.65
84522;BME280;74758;50.066;20.008;2024-03-02T03:19:30;98624.17;;;7.91;71.52
84522;BME280;74758;50.066;20.008;2024-03-02T03:20:33;98626.35;;;7.89;71.36
84522;BME280;74758;50.066;20.008;2024-03-02T03:21:35;98624.71;;;7.83;71.39
84522;BME280;74758;50.066;20.008;2024-03-02T03:22:39;98624.89;;;7.79;71.58
84522;BME280;74758;50.066;20.008;2024-03-02T03:23:41;98628.69;;;7.76;71.54
84522;BME280;74758;50.066;20.008;2024-03-02T03:24:43;98629.98;;;7.73;71.52
84522;BME280;74758;50.066;20.008;2024-03-02T03:25:45;98630.20;;;7.71;71.64
84522;BME280;74758;50.066;20.008;2024-03-02T03:26:46;98632.15;;;7.69;71.75
84522;BME280;74758;50.066;20.008;2024-03-02T03:27:48;98630.08;;;7.66;71.75
84522;BME280;74758;50.066;20.008;2024-03-02T03:28:50;98628.13;;;7.64;71.67
84522;BME280;74758;50.066;20.008;2024-03-02T03:29:51;98630.54;;;7.63;71.69
84522;BME280;74758;50.066;20.008;2024-03-02T03:30:53;98628.45;;;7.61;71.82
84522;BME280;74758;50.066;20.008;2024-03-02T03:31:55;98627.43;;;7.59;71.77
84522;BME280;74758;50.066;20.008;2024-03-02T03:32:57;98622.77;;;7.56;71.83
84522;BME280;74758;50.066;20.008;2024-03-02T03:33:59;98622.08;;;7.54;72.07
84522;BME280;74758;50.066;20.008;2024-03-02T03:35:01;98618.05;;;7.52;72.06
84522;BME280;74758;50.066;20.008;2024-03-02T03:36:03;98617.14;;;7.50;71.98
84522;BME280;74758;50.066;20.008;2024-03-02T03:37:05;98616.09;;;7.49;72.14
84522;BME280;74758;50.066;20.008;2024-03-02T03:38:06;98613.83;;;7.48;72.16
84522;BME280;74758;50.066;20.008;2024-03-02T03:39:08;98613.36;;;7.48;72.21
84522;BME280;74758;50.066;20.008;2024-03-02T03:40:10;98608.95;;;7.48;72.20
84522;BME280;74758;50.066;20.008;2024-03-02T03:41:12;98607.17;;;7.48;72.33
84522;BME280;74758;50.066;20.008;2024-03-02T03:42:14;98610.23;;;7.49;72.23
84522;BME280;74758;50.066;20.008;2024-03-02T03:43:16;98612.58;;;7.51;72.26
84522;BME280;74758;50.066;20.008;2024-03-02T03:44:18;98611.98;;;7.50;72.37
84522;BME280;74758;50.066;20.008;2024-03-02T03:45:19;98608.67;;;7.49;72.26
84522;BME280;74758;50.066;20.008;2024-03-02T03:46:21;98610.45;;;7.49;72.12
84522;BME280;74758;50.066;20.008;2024-03-02T03:47:23;98608.80;;;7.48;72.40
84522;BME280;74758;50.066;20.008;2024-03-02T03:48:25;98608.14;;;7.47;72.28
84522;BME280;74758;50.066;20.008;2024-03-02T03:49:32;98609.33;;;7.46;72.26
84522;BME280;74758;50.066;20.008;2024-03-02T03:50:34;98610.86;;;7.44;72.22
84522;BME280;74758;50.066;20.008;2024-03-02T03:51:35;98610.28;;;7.43;72.23
84522;BME280;74758;50.066;20.008;2024-03-02T03:52:37;98610.74;;;7.42;72.28
84522;BME280;74758;50.066;20.008;2024-03-02T03:53:39;98613.48;;;7.41;72.25
84522;BME280;74758;50.066;20.008;2024-03-02T03:54:40;98613.39;;;7.38;72.24
84522;BME280;74758;50.066;20.008;2024-03-02T03:55:44;98614.20;;;7.36;72.28
84522;BME280;74758;50.066;20.008;2024-03-02T03:56:48;98614.20;;;7.34;72.25
84522;BME280;74758;50.066;20.008;2024-03-02T03:57:49;98613.02;;;7.34;72.35
84522;BME280;74758;50.066;20.008;2024-03-02T03:58:51;98609.42;;;7.33;72.21
84522;BME280;74758;50.066;20.008;2024-03-02T03:59:53;98607.06;;;7.34;72.45
84522;BME280;74758;50.066;20.008;2024-03-02T04:00:55;98607.14;;;7.35;72.47
84522;BME280;74758;50.066;20.008;2024-03-02T04:01:57;98606.08;;;7.37;72.65
84522;BME280;74758;50.066;20.008;2024-03-02T04:02:59;98605.91;;;7.39;72.50
84522;BME280;74758;50.066;20.008;2024-03-02T04:04:01;98605.05;;;7.39;72.55
84522;BME280;74758;50.066;20.008;2024-03-02T04:05:05;98603.02;;;7.40;72.63
84522;BME280;74758;50.066;20.008;2024-03-02T04:06:10;98602.30;;;7.40;72.41
84522;BME280;74758;50.066;20.008;2024-03-02T04:07:12;98599.86;;;7.42;72.42
84522;BME280;74758;50.066;20.008;2024-03-02T04:08:14;98602.05;;;7.43;72.66
84522;BME280;74758;50.066;20.008;2024-03-02T04:09:15;98600.92;;;7.44;72.54
84522;BME280;74758;50.066;20.008;2024-03-02T04:10:17;98601.98;;;7.44;72.37
84522;BME280;74758;50.066;20.008;2024-03-02T04:11:18;98603.49;;;7.45;72.63
84522;BME280;74758;50.066;20.008;2024-03-02T04:12:20;98601.03;;;7.45;72.47
84522;BME280;74758;50.066;20.008;2024-03-02T04:13:22;98602.02;;;7.45;72.55
84522;BME280;74758;50.066;20.008;2024-03-02T04:14:24;98599.38;;;7.46;72.51
84522;BME280;74758;50.066;20.008;2024-03-02T04:15:25;98600.54;;;7.46;72.56
84522;BME280;74758;50.066;20.008;2024-03-02T04:16:27;98607.04;;;7.48;72.57
84522;BME280;74758;50.066;20.008;2024-03-02T04:17:32;98606.44;;;7.49;72.46
84522;BME280;74758;50.066;20.008;2024-03-02T04:18:34;98607.79;;;7.49;72.26
84522;BME280;74758;50.066;20.008;2024-03-02T04:19:36;98612.40;;;7.49;72.30
84522;BME280;74758;50.066;20.008;2024-03-02T04:20:38;98611.45;;;7.48;72.29
84522;BME280;74758;50.066;20.008;2024-03-02T04:21:40;98615.11;;;7.46;72.25
84522;BME280;74758;50.066;20.008;2024-03-02T04:22:42;98615.77;;;7.44;72.36
84522;BME280;74758;50.066;20.008;2024-03-02T04:23:43;98615.36;;;7.43;72.18
84522;BME280;74758;50.066;20.008;2024-03-02T04:24:45;98615.20;;;7.41;72.29
84522;BME280;74758;50.066;20.008;2024-03-02T04:25:47;98612.59;;;7.39;72.45
84522;BME280;74758;50.066;20.008;2024-03-02T04:26:48;98615.62;;;7.38;72.60
84522;BME280;74758;50.066;20.008;2024-03-02T04:27:50;98619.35;;;7.39;72.73
84522;BME280;74758;50.066;20.008;2024-03-02T04:28:52;98617.66;;;7.39;72.85
84522;BME280;74758;50.066;20.008;2024-03-02T04:29:55;98621.42;;;7.40;72.73
84522;BME280;74758;50.066;20.008;2024-03-02T04:30:57;98620.75;;;7.41;72.74
84522;BME280;74758;50.066;20.008;2024-03-02T04:31:59;98620.13;;;7.42;72.66
84522;BME280;74758;50.066;20.008;2024-03-02T04:33:01;98622.54;;;7.43;72.63
84522;BME280;74758;50.066;20.008;2024-03-02T04:34:04;98620.99;;;7.44;72.70
84522;BME280;74758;50.066;20.008;2024-03-02T04:35:06;98616.24;;;7.45;72.54
84522;BME280;74758;50.066;20.008;2024-03-02T04:36:11;98619.23;;;7.45;72.28
84522;BME280;74758;50.066;20.008;2024-03-02T04:37:13;98619.31;;;7.44;72.39
84522;BME280;74758;50.066;20.008;2024-03-02T04:38:16;98616.72;;;7.43;72.62
84522;BME280;74758;50.066;20.008;2024-03-02T04:39:18;98612.66;;;7.44;72.56
84522;BME280;74758;50.066;20.008;2024-03-02T04:40:19;98612.94;;;7.43;72.56
84522;BME280;74758;50.066;20.008;2024-03-02T04:41:21;98606.74;;;7.42;72.51
84522;BME280;74758;50.066;20.008;2024-03-02T04:42:23;98610.25;;;7.41;72.69
84522;BME280;74758;50.066;20.008;2024-03-02T04:43:25;98611.24;;;7.42;72.60
84522;BME280;74758;50.066;20.008;2024-03-02T04:44:26;98605.98;;;7.41;72.60
84522;BME280;74758;50.066;20.008;2024-03-02T04:45:28;98603.00;;;7.38;72.51
84522;BME280;74758;50.066;20.008;2024-03-02T04:46:31;98602.53;;;7.36;72.53
84522;BME280;74758;50.066;20.008;2024-03-02T04:47:33;98599.43;;;7.33;72.71
84522;BME280;74758;50.066;20.008;2024-03-02T04:48:34;98600.32;;;7.33;72.65
84522;BME280;74758;50.066;20.008;2024-03-02T04:49:36;98603.65;;;7.31;72.66
84522;BME280;74758;50.066;20.008;2024-03-02T04:50:38;98602.13;;;7.30;72.67
84522;BME280;74758;50.066;20.008;2024-03-02T04:51:40;98604.02;;;7.31;72.66
84522;BME280;74758;50.066;20.008;2024-03-02T04:52:42;98599.38;;;7.30;72.62
84522;BME280;74758;50.066;20.008;2024-03-02T04:53:44;98603.15;;;7.28;72.57
84522;BME280;74758;50.066;20.008;2024-03-02T04:54:45;98600.71;;;7.26;72.79
84522;BME280;74758;50.066;20.008;2024-03-02T04:56:06;98596.95;;;7.23;72.61
84522;BME280;74758;50.066;20.008;2024-03-02T04:57:26;98596.11;;;7.19;72.70
84522;BME280;74758;50.066;20.008;2024-03-02T04:58:28;98593.84;;;7.15;72.81
84522;BME280;74758;50.066;20.008;2024-03-02T04:59:29;98595.92;;;7.13;72.99
84522;BME280;74758;50.066;20.008;2024-03-02T05:00:33;98598.83;;;7.10;72.94
84522;BME280;74758;50.066;20.008;2024-03-02T05:01:35;98601.55;;;7.07;73.05
84522;BME280;74758;50.066;20.008;2024-03-02T05:02:37;98603.28;;;7.05;73.21
84522;BME280;74758;50.066;20.008;2024-03-02T05:03:38;98612.63;;;7.02;73.04
84522;BME280;74758;50.066;20.008;2024-03-02T05:04:40;98612.10;;;7.00;72.90
84522;BME280;74758;50.066;20.008;2024-03-02T05:05:43;98612.77;;;6.98;73.09
84522;BME280;74758;50.066;20.008;2024-03-02T05:06:46;98615.55;;;6.96;72.78
84522;BME280;74758;50.066;20.008;2024-03-02T05:07:54;98616.21;;;6.94;72.98
84522;BME280;74758;50.066;20.008;2024-03-02T05:08:56;98615.27;;;6.93;73.06
84522;BME280;74758;50.066;20.008;2024-03-02T05:09:58;98615.09;;;6.93;73.23
84522;BME280;74758;50.066;20.008;2024-03-02T05:11:01;98617.69;;;6.93;73.36
84522;BME280;74758;50.066;20.008;2024-03-02T05:12:22;98618.33;;;6.92;73.50
84522;BME280;74758;50.066;20.008;2024-03-02T05:13:53;98623.31;;;6.91;73.57
84522;BME280;74758;50.066;20.008;2024-03-02T05:14:55;98623.52;;;6.91;73.65
84522;BME280;74758;50.066;20.008;2024-03-02T05:15:57;98622.09;;;6.91;73.53
84522;BME280;74758;50.066;20.008;2024-03-02T05:16:59;98623.67;;;6.91;73.66
84522;BME280;74758;50.066;20.008;2024-03-02T05:18:01;98623.83;;;6.91;73.83
84522;BME280;74758;50.066;20.008;2024-03-02T05:19:07;98626.45;;;6.91;73.59
84522;BME280;74758;50.066;20.008;2024-03-02T05:20:09;98627.26;;;6.92;73.70
84522;BME280;74758;50.066;20.008;2024-03-02T05:21:11;98628.14;;;6.92;73.88
84522;BME280;74758;50.066;20.008;2024-03-02T05:22:13;98628.89;;;6.93;73.81
84522;BME280;74758;50.066;20.008;2024-03-02T05:23:15;98634.80;;;6.94;73.77
84522;BME280;74758;50.066;20.008;2024-03-02T05:24:17;98635.08;;;6.94;73.84
84522;BME280;74758;50.066;20.008;2024-03-02T05:25:18;98638.36;;;6.95;73.42
84522;BME280;74758;50.066;20.008;2024-03-02T05:26:20;98640.98;;;6.95;73.56
84522;BME280;74758;50.066;20.008;2024-03-02T05:27:22;98640.73;;;6.94;73.83
84522;BME280;74758;50.066;20.008;2024-03-02T05:28:24;98640.95;;;6.93;73.63
84522;BME280;74758;50.066;20.008;2024-03-02T05:29:25;98639.14;;;6.92;73.87
84522;BME280;74758;50.066;20.008;2024-03-02T05:30:27;98639.59;;;6.91;73.94
84522;BME280;74758;50.066;20.008;2024-03-02T05:31:29;98640.21;;;6.90;74.09
84522;BME280;74758;50.066;20.008;2024-03-02T05:32:30;98642.72;;;6.89;73.67
84522;BME280;74758;50.066;20.008;2024-03-02T05:33:32;98647.13;;;6.88;73.85